createdAt,value
2018-09-01T00:02:13.001Z,99.90
2018-09-01T00:04:41.520Z,99.90
2018-09-01T00:07:10.065Z,99.90
2018-09-01T00:09:38.611Z,99.90
2018-09-01T00:12:07.987Z,99.90
2018-09-01T00:14:36.568Z,99.90
2018-09-01T00:17:05.465Z,99.90
2018-09-01T00:19:34.060Z,99.90
2018-09-01T00:22:02.600Z,99.90
2018-09-01T00:24:31.086Z,99.90
2018-09-01T00:26:59.606Z,99.90
2018-09-01T00:29:28.126Z,99.90
2018-09-01T00:31:56.602Z,99.90
2018-09-01T00:34:25.140Z,99.90
2018-09-01T00:36:53.727Z,99.90
2018-09-01T00:39:22.276Z,99.90
2018-09-01T00:41:50.792Z,99.90
2018-09-01T00:44:19.349Z,99.90
2018-09-01T00:46:47.905Z,99.90
2018-09-01T00:49:16.416Z,99.90
2018-09-01T00:51:45.042Z,99.90
2018-09-01T00:54:13.530Z,99.90
2018-09-01T00:56:42.063Z,99.90
2018-09-01T00:59:10.623Z,99.90
2018-09-01T01:01:39.124Z,99.90
2018-09-01T01:04:07.700Z,99.90
2018-09-01T01:06:36.218Z,99.90
2018-09-01T01:09:05.620Z,99.90
2018-09-01T01:11:34.122Z,99.90
2018-09-01T01:14:02.751Z,99.90
2018-09-01T01:16:31.272Z,99.90
2018-09-01T01:18:59.807Z,99.90
2018-09-01T01:21:28.417Z,99.90
2018-09-01T01:23:56.914Z,99.90
2018-09-01T01:26:25.440Z,99.90
2018-09-01T01:28:53.971Z,99.90
2018-09-01T01:31:22.472Z,99.90
2018-09-01T01:33:51.061Z,99.90
2018-09-01T01:36:19.566Z,99.90
2018-09-01T01:38:48.392Z,99.90
2018-09-01T01:41:16.905Z,99.90
2018-09-01T01:43:45.493Z,99.90
2018-09-01T01:46:14.038Z,99.90
2018-09-01T01:48:42.567Z,99.90
2018-09-01T01:51:11.558Z,99.90
2018-09-01T01:53:40.056Z,99.90
2018-09-01T01:56:08.612Z,99.90
2018-09-01T01:58:37.097Z,99.90
2018-09-01T02:01:05.618Z,99.90
2018-09-01T02:03:34.155Z,99.90
2018-09-01T02:06:02.652Z,99.90
2018-09-01T02:08:31.143Z,99.90
2018-09-01T02:10:59.699Z,99.90
2018-09-01T02:13:28.198Z,99.90
2018-09-01T02:15:56.702Z,99.90
2018-09-01T02:18:25.181Z,99.90
2018-09-01T02:20:53.774Z,99.90
2018-09-01T02:23:22.315Z,99.90
2018-09-01T02:25:50.811Z,99.90
2018-09-01T02:28:19.311Z,99.90
2018-09-01T02:30:47.819Z,99.90
2018-09-01T02:33:16.361Z,99.90
2018-09-01T02:35:44.849Z,99.90
2018-09-01T02:38:13.297Z,99.90
2018-09-01T02:40:41.769Z,99.90
2018-09-01T02:43:10.262Z,99.90
2018-09-01T02:45:38.783Z,99.90
2018-09-01T02:48:07.296Z,99.90
2018-09-01T02:50:35.920Z,99.90
2018-09-01T02:53:04.539Z,99.90
2018-09-01T02:55:33.057Z,99.90
2018-09-01T02:58:01.676Z,99.90
2018-09-01T03:00:37.210Z,99.90
2018-09-01T03:03:05.783Z,99.90
2018-09-01T03:05:34.290Z,99.90
2018-09-01T03:08:03.350Z,99.90
2018-09-01T03:10:31.851Z,99.90
2018-09-01T03:13:00.399Z,99.90
2018-09-01T03:15:28.909Z,99.90
2018-09-01T03:17:57.445Z,99.90
2018-09-01T03:20:25.913Z,99.90
2018-09-01T03:22:54.443Z,99.90
2018-09-01T03:25:22.970Z,99.90
2018-09-01T03:27:51.484Z,99.90
2018-09-01T03:30:19.989Z,99.90
2018-09-01T03:32:48.501Z,99.90
2018-09-01T03:35:17.015Z,99.90
2018-09-01T03:37:45.503Z,99.90
2018-09-01T03:40:13.962Z,99.90
2018-09-01T03:42:42.465Z,99.90
2018-09-01T03:45:10.958Z,99.90
2018-09-01T03:47:39.548Z,99.90
2018-09-01T03:50:08.012Z,99.90
2018-09-01T03:52:36.523Z,99.90
2018-09-01T03:55:05.040Z,99.90
2018-09-01T03:57:33.555Z,99.90
2018-09-01T04:00:02.043Z,99.90
2018-09-01T04:02:37.550Z,99.90
2018-09-01T04:05:06.786Z,99.90
2018-09-01T04:07:35.250Z,99.90
2018-09-01T04:10:03.839Z,99.90
2018-09-01T04:12:32.319Z,99.90
2018-09-01T04:15:00.882Z,99.90
2018-09-01T04:17:29.404Z,99.90
2018-09-01T04:19:57.882Z,99.90
2018-09-01T04:22:26.363Z,99.90
2018-09-01T04:24:54.865Z,99.90
2018-09-01T04:27:23.485Z,99.90
2018-09-01T04:29:51.980Z,99.90
2018-09-01T04:32:20.547Z,99.90
2018-09-01T04:34:49.103Z,99.90
2018-09-01T04:37:17.710Z,99.90
2018-09-01T04:39:46.326Z,99.90
2018-09-01T04:42:14.820Z,99.90
2018-09-01T04:44:43.288Z,99.90
2018-09-01T04:47:11.922Z,99.90
2018-09-01T04:49:40.447Z,99.90
2018-09-01T04:52:08.989Z,99.90
2018-09-01T04:54:37.536Z,99.90
2018-09-01T04:57:06.068Z,99.90
2018-09-01T04:59:34.549Z,99.90
2018-09-01T05:02:03.111Z,99.90
2018-09-01T05:04:31.623Z,99.90
2018-09-01T05:07:00.155Z,99.90
2018-09-01T05:09:28.682Z,99.90
2018-09-01T05:11:57.138Z,99.90
2018-09-01T05:14:25.657Z,99.90
2018-09-01T05:16:54.224Z,99.90
2018-09-01T05:19:22.809Z,99.90
2018-09-01T05:21:51.381Z,99.90
2018-09-01T05:24:19.907Z,99.90
2018-09-01T05:26:48.474Z,99.90
2018-09-01T05:29:17.019Z,99.90
2018-09-01T05:31:45.519Z,99.90
2018-09-01T05:34:14.299Z,99.90
2018-09-01T05:36:42.930Z,99.90
2018-09-01T05:39:11.410Z,99.90
2018-09-01T05:41:39.948Z,99.90
2018-09-01T05:44:08.508Z,99.90
2018-09-01T05:46:37.084Z,99.90
2018-09-01T05:49:05.717Z,99.90
2018-09-01T05:51:34.199Z,99.90
2018-09-01T05:54:02.740Z,99.90
2018-09-01T05:56:31.253Z,99.90
2018-09-01T05:58:59.807Z,99.90
2018-09-01T06:01:28.408Z,99.90
2018-09-01T06:03:56.993Z,99.90
2018-09-01T06:06:25.547Z,99.90
2018-09-01T06:08:54.044Z,99.90
2018-09-01T06:11:22.616Z,99.90
2018-09-01T06:13:51.270Z,99.90
2018-09-01T06:16:19.792Z,99.90
2018-09-01T06:18:48.357Z,99.90
2018-09-01T06:21:16.983Z,99.90
2018-09-01T06:23:45.791Z,99.90
2018-09-01T06:26:14.354Z,99.90
2018-09-01T06:28:47.634Z,99.90
2018-09-01T06:31:17.335Z,99.90
2018-09-01T06:33:45.908Z,99.90
2018-09-01T06:36:14.499Z,99.90
2018-09-01T06:38:43.110Z,99.90
2018-09-01T06:41:11.637Z,99.90
2018-09-01T06:43:40.165Z,99.90
2018-09-01T06:46:08.688Z,99.90
2018-09-01T06:48:37.222Z,99.90
2018-09-01T06:51:05.778Z,99.90
2018-09-01T06:53:34.295Z,99.90
2018-09-01T06:56:02.922Z,99.90
2018-09-01T06:58:31.417Z,99.90
2018-09-01T07:00:59.903Z,99.90
2018-09-01T07:03:28.408Z,99.90
2018-09-01T07:05:56.907Z,99.90
2018-09-01T07:08:25.453Z,99.90
2018-09-01T07:10:53.978Z,99.90
2018-09-01T07:13:22.530Z,99.90
2018-09-01T07:15:51.060Z,99.90
2018-09-01T07:18:19.592Z,99.90
2018-09-01T07:20:48.099Z,99.90
2018-09-01T07:23:16.645Z,99.90
2018-09-01T07:25:45.139Z,99.90
2018-09-01T07:28:13.626Z,99.90
2018-09-01T07:30:42.305Z,99.90
2018-09-01T07:33:10.683Z,99.90
2018-09-01T07:35:39.210Z,99.90
2018-09-01T07:38:07.985Z,99.90
2018-09-01T07:40:36.479Z,99.90
2018-09-01T07:43:05.009Z,99.90
2018-09-01T07:45:33.489Z,99.90
2018-09-01T07:48:02.007Z,99.90
2018-09-01T07:50:30.487Z,99.90
2018-09-01T07:52:58.986Z,99.90
2018-09-01T07:55:27.484Z,99.90
2018-09-01T07:57:55.966Z,99.90
2018-09-01T08:00:24.492Z,99.90
2018-09-01T08:02:53.055Z,99.90
2018-09-01T08:05:21.594Z,99.90
2018-09-01T08:07:50.114Z,99.90
2018-09-01T08:10:18.671Z,99.90
2018-09-01T08:12:47.196Z,99.90
2018-09-01T08:15:15.729Z,99.90
2018-09-01T08:17:44.811Z,99.90
2018-09-01T08:20:13.296Z,99.90
2018-09-01T08:22:41.779Z,99.90
2018-09-01T08:25:10.382Z,99.90
2018-09-01T08:27:38.913Z,99.90
2018-09-01T08:30:07.484Z,99.90
2018-09-01T08:32:36.019Z,99.90
2018-09-01T08:35:04.610Z,99.90
2018-09-01T08:37:33.175Z,99.90
2018-09-01T08:40:01.681Z,99.90
2018-09-01T08:42:30.160Z,99.90
2018-09-01T08:44:58.668Z,99.90
2018-09-01T08:47:27.182Z,99.90
2018-09-01T08:49:55.665Z,99.90
2018-09-01T08:52:24.200Z,99.90
2018-09-01T08:54:52.806Z,99.90
2018-09-01T08:57:21.286Z,99.90
2018-09-01T08:59:49.764Z,99.90
2018-09-01T09:02:18.325Z,99.90
2018-09-01T09:04:46.832Z,99.90
2018-09-01T09:07:15.376Z,99.90
2018-09-01T09:09:43.934Z,99.90
2018-09-01T09:12:12.481Z,99.90
2018-09-01T09:14:41.003Z,99.90
2018-09-01T09:17:09.588Z,99.90
2018-09-01T09:19:38.130Z,99.90
2018-09-01T09:22:06.680Z,99.90
2018-09-01T09:24:35.245Z,99.90
2018-09-01T09:27:03.772Z,99.90
2018-09-01T09:29:32.315Z,99.90
2018-09-01T09:32:00.989Z,97.90
2018-09-01T09:34:29.593Z,98.10
2018-09-01T09:36:58.094Z,97.50
2018-09-01T09:39:26.603Z,96.80
2018-09-01T09:41:55.461Z,96.70
2018-09-01T09:44:24.069Z,95.40
2018-09-01T09:46:52.592Z,95.50
2018-09-01T09:49:21.197Z,95.40
2018-09-01T09:51:49.739Z,95.50
2018-09-01T09:54:18.352Z,95.70
2018-09-01T09:56:46.915Z,96.00
2018-09-01T09:59:15.457Z,95.80
2018-09-01T10:01:43.980Z,95.90
2018-09-01T10:04:12.811Z,95.30
2018-09-01T10:06:41.331Z,94.20
2018-09-01T10:09:13.518Z,94.60
2018-09-01T10:11:43.131Z,94.10
2018-09-01T10:14:12.162Z,93.90
2018-09-01T10:16:41.463Z,93.70
2018-09-01T10:19:10.236Z,93.60
2018-09-01T10:21:38.928Z,93.90
2018-09-01T10:24:07.809Z,94.00
2018-09-01T10:26:36.335Z,93.30
2018-09-01T10:29:04.872Z,92.90
2018-09-01T10:31:33.423Z,92.20
2018-09-01T10:34:01.976Z,91.70
2018-09-01T10:36:30.614Z,91.50
2018-09-01T10:38:59.436Z,90.90
2018-09-01T10:41:28.070Z,90.40
2018-09-01T10:43:56.675Z,89.70
2018-09-01T10:46:25.246Z,88.40
2018-09-01T10:48:53.841Z,87.90
2018-09-01T10:51:22.448Z,88.30
2018-09-01T10:53:50.951Z,87.90
2018-09-01T10:56:19.474Z,85.30
2018-09-01T10:58:48.139Z,85.20
2018-09-01T11:01:16.605Z,84.70
2018-09-01T11:03:45.178Z,85.00
2018-09-01T11:06:13.714Z,83.90
2018-09-01T11:08:42.233Z,82.80
2018-09-01T11:11:10.771Z,82.30
2018-09-01T11:13:39.322Z,80.90
2018-09-01T11:16:07.918Z,79.70
2018-09-01T11:18:36.816Z,80.00
2018-09-01T11:21:05.424Z,79.80
2018-09-01T11:23:34.076Z,80.20
2018-09-01T11:26:02.703Z,80.10
2018-09-01T11:28:31.260Z,80.00
2018-09-01T11:30:59.824Z,77.80
2018-09-01T11:33:28.333Z,77.30
2018-09-01T11:35:56.875Z,77.20
2018-09-01T11:38:25.465Z,77.10
2018-09-01T11:40:54.001Z,76.10
2018-09-01T11:43:22.574Z,74.80
2018-09-01T11:45:51.078Z,72.50
2018-09-01T11:48:19.633Z,71.00
2018-09-01T11:50:48.127Z,71.70
2018-09-01T11:53:16.779Z,71.50
2018-09-01T11:55:45.243Z,70.00
2018-09-01T11:58:13.757Z,70.20
2018-09-01T12:00:42.285Z,70.90
2018-09-01T12:03:10.789Z,69.90
2018-09-01T12:05:39.326Z,69.50
2018-09-01T12:08:07.864Z,69.00
2018-09-01T12:10:36.449Z,68.90
2018-09-01T12:13:05.030Z,68.40
2018-09-01T12:15:33.580Z,67.60
2018-09-01T12:18:02.104Z,67.60
2018-09-01T12:20:30.646Z,67.00
2018-09-01T12:22:59.163Z,67.10
2018-09-01T12:25:27.691Z,66.40
2018-09-01T12:27:56.258Z,66.90
2018-09-01T12:30:24.818Z,67.10
2018-09-01T12:32:53.582Z,66.90
2018-09-01T12:35:22.184Z,67.70
2018-09-01T12:37:50.694Z,69.30
2018-09-01T12:40:19.210Z,68.60
2018-09-01T12:42:47.745Z,67.40
2018-09-01T12:45:16.325Z,64.80
2018-09-01T12:47:44.872Z,62.90
2018-09-01T12:50:13.386Z,62.30
2018-09-01T12:52:41.993Z,61.60
2018-09-01T12:55:10.555Z,61.50
2018-09-01T12:57:39.157Z,60.80
2018-09-01T13:00:07.860Z,60.00
2018-09-01T13:02:36.447Z,59.70
2018-09-01T13:05:05.502Z,59.20
2018-09-01T13:07:34.083Z,59.90
2018-09-01T13:10:02.728Z,59.30
2018-09-01T13:12:31.298Z,59.80
2018-09-01T13:14:59.897Z,59.00
2018-09-01T13:17:28.472Z,59.30
2018-09-01T13:19:57.119Z,59.40
2018-09-01T13:22:25.950Z,58.80
2018-09-01T13:24:54.548Z,59.50
2018-09-01T13:27:23.066Z,59.60
2018-09-01T13:29:51.609Z,58.90
2018-09-01T13:32:20.130Z,59.90
2018-09-01T13:34:48.728Z,58.60
2018-09-01T13:37:17.265Z,59.00
2018-09-01T13:39:45.836Z,57.30
2018-09-01T13:42:14.993Z,55.90
2018-09-01T13:44:43.607Z,49.70
2018-09-01T13:47:12.123Z,42.30
2018-09-01T13:49:40.660Z,40.50
2018-09-01T13:52:09.265Z,30.70
2018-09-01T13:54:37.808Z,26.90
2018-09-01T13:57:06.358Z,26.40
2018-09-01T13:59:34.879Z,28.40
2018-09-01T14:02:03.494Z,30.60
2018-09-01T14:04:32.027Z,33.00
2018-09-01T14:07:00.612Z,34.10
2018-09-01T14:09:29.193Z,33.20
2018-09-01T14:11:57.728Z,34.50
2018-09-01T14:14:26.409Z,32.80
2018-09-01T14:16:55.520Z,33.60
2018-09-01T14:19:24.151Z,35.20
2018-09-01T14:21:52.787Z,36.30
2018-09-01T14:24:21.454Z,37.00
2018-09-01T14:26:50.028Z,37.90
2018-09-01T14:29:18.590Z,38.60
2018-09-01T14:31:47.163Z,39.00
2018-09-01T14:34:15.857Z,40.40
2018-09-01T14:36:44.439Z,41.10
2018-09-01T14:39:13.043Z,35.70
2018-09-01T14:41:41.631Z,30.90
2018-09-01T14:44:10.300Z,27.50
2018-09-01T14:46:38.940Z,24.80
2018-09-01T14:49:07.462Z,22.70
2018-09-01T14:51:36.026Z,21.10
2018-09-01T14:54:04.613Z,20.20
2018-09-01T14:56:33.173Z,19.60
2018-09-01T14:59:01.716Z,19.60
2018-09-01T15:01:30.348Z,19.60
2018-09-01T15:03:58.864Z,18.70
2018-09-01T15:06:27.594Z,18.50
2018-09-01T15:08:56.170Z,17.60
2018-09-01T15:11:24.706Z,17.00
2018-09-01T15:13:53.280Z,17.30
2018-09-01T15:16:21.883Z,18.20
2018-09-01T15:18:50.426Z,19.90
2018-09-01T15:21:18.999Z,21.80
2018-09-01T15:23:47.570Z,21.60
2018-09-01T15:26:16.104Z,20.30
2018-09-01T15:28:44.632Z,19.60
2018-09-01T15:31:13.133Z,20.00
2018-09-01T15:33:41.651Z,19.60
2018-09-01T15:36:10.193Z,21.10
2018-09-01T15:38:38.771Z,22.40
2018-09-01T15:41:07.632Z,23.70
2018-09-01T15:43:36.205Z,24.30
2018-09-01T15:46:04.760Z,22.60
2018-09-01T15:48:33.331Z,22.80
2018-09-01T15:51:01.957Z,23.60
2018-09-01T15:53:30.574Z,25.50
2018-09-01T15:55:59.147Z,27.10
2018-09-01T15:58:27.657Z,28.80
2018-09-01T16:00:57.026Z,30.70
2018-09-01T16:03:25.651Z,32.50
2018-09-01T16:05:54.235Z,34.90
2018-09-01T16:08:22.867Z,36.50
2018-09-01T16:10:51.858Z,37.70
2018-09-01T16:13:20.413Z,38.90
2018-09-01T16:15:49.030Z,39.90
2018-09-01T16:18:17.525Z,41.00
2018-09-01T16:20:46.077Z,37.40
2018-09-01T16:23:14.623Z,33.40
2018-09-01T16:25:43.182Z,30.00
2018-09-01T16:28:11.852Z,27.60
2018-09-01T16:30:40.390Z,26.30
2018-09-01T16:33:08.942Z,25.00
2018-09-01T16:35:37.483Z,24.50
2018-09-01T16:38:06.004Z,24.10
2018-09-01T16:40:34.547Z,23.60
2018-09-01T16:43:03.052Z,23.70
2018-09-01T16:45:31.646Z,25.30
2018-09-01T16:48:00.248Z,27.20
2018-09-01T16:50:28.811Z,29.50
2018-09-01T16:52:57.382Z,31.90
2018-09-01T16:55:25.984Z,33.90
2018-09-01T16:57:54.517Z,35.70
2018-09-01T17:00:23.016Z,37.60
2018-09-01T17:02:51.565Z,39.20
2018-09-01T17:05:20.167Z,41.10
2018-09-01T17:07:48.725Z,42.40
2018-09-01T17:10:17.230Z,44.20
2018-09-01T17:12:45.768Z,45.20
2018-09-01T17:15:14.438Z,45.80
2018-09-01T17:17:42.930Z,46.60
2018-09-01T17:20:11.461Z,47.30
2018-09-01T17:22:39.977Z,48.00
2018-09-01T17:25:08.533Z,48.70
2018-09-01T17:27:37.070Z,49.10
2018-09-01T17:30:06.524Z,49.60
2018-09-01T17:32:35.087Z,50.40
2018-09-01T17:35:03.671Z,51.00
2018-09-01T17:37:32.317Z,51.50
2018-09-01T17:40:00.890Z,52.20
2018-09-01T17:42:29.433Z,53.50
2018-09-01T17:44:58.056Z,53.40
2018-09-01T17:47:26.679Z,54.30
2018-09-01T17:49:55.234Z,55.10
2018-09-01T17:52:23.789Z,55.60
2018-09-01T17:54:52.368Z,56.10
2018-09-01T17:57:21.010Z,56.70
2018-09-01T17:59:49.558Z,57.00
2018-09-01T18:02:18.289Z,58.60
2018-09-01T18:04:46.874Z,58.20
2018-09-01T18:07:15.477Z,58.60
2018-09-01T18:09:44.125Z,59.40
2018-09-01T18:12:12.760Z,60.10
2018-09-01T18:14:41.411Z,60.60
2018-09-01T18:17:10.036Z,61.50
2018-09-01T18:19:38.629Z,62.10
2018-09-01T18:22:07.269Z,62.50
2018-09-01T18:24:35.990Z,63.50
2018-09-01T18:27:04.553Z,64.10
2018-09-01T18:29:33.113Z,64.00
2018-09-01T18:32:01.680Z,64.80
2018-09-01T18:36:58.410Z,65.40
2018-09-01T18:39:27.011Z,66.80
2018-09-01T18:41:55.646Z,67.60
2018-09-01T18:44:24.261Z,68.60
2018-09-01T18:49:21.043Z,68.90
2018-09-01T18:51:49.632Z,70.20
2018-09-01T18:54:18.199Z,70.70
2018-09-01T18:56:46.730Z,71.10
2018-09-01T18:59:15.358Z,71.80
2018-09-01T19:01:43.950Z,72.70
2018-09-01T19:04:12.604Z,73.60
2018-09-01T19:06:41.141Z,74.30
2018-09-01T19:09:09.643Z,75.20
2018-09-01T19:11:38.287Z,75.40
2018-09-01T19:14:06.878Z,76.40
2018-09-01T19:16:35.347Z,77.10
2018-09-01T19:19:03.859Z,78.20
2018-09-01T19:21:32.363Z,78.80
2018-09-01T19:24:00.967Z,80.10
2018-09-01T19:26:29.518Z,81.30
2018-09-01T19:28:58.091Z,83.20
2018-09-01T19:31:26.655Z,85.00
2018-09-01T19:33:55.227Z,86.40
2018-09-01T19:36:23.759Z,90.30
2018-09-01T19:38:52.348Z,89.80
2018-09-01T19:41:20.927Z,90.70
2018-09-01T19:43:49.493Z,91.80
2018-09-01T19:46:18.157Z,92.40
2018-09-01T19:48:46.749Z,93.30
2018-09-01T19:51:15.401Z,94.50
2018-09-01T19:53:43.969Z,95.40
2018-09-01T19:56:12.715Z,96.60
2018-09-01T19:58:41.316Z,97.60
2018-09-01T20:01:09.937Z,98.20
2018-09-01T20:03:38.514Z,98.60
2018-09-01T20:06:07.119Z,99.20
2018-09-01T20:08:35.713Z,99.90
2018-09-01T20:11:04.224Z,99.90
2018-09-01T20:13:32.918Z,99.90
2018-09-01T20:16:01.808Z,99.90
2018-09-01T20:18:30.359Z,99.90
2018-09-01T20:20:59.025Z,99.90
2018-09-01T20:23:27.644Z,99.90
2018-09-01T20:25:56.287Z,99.90
2018-09-01T20:28:24.938Z,99.90
2018-09-01T20:30:53.469Z,99.90
2018-09-01T20:33:22.064Z,99.90
2018-09-01T20:35:56.437Z,99.90
2018-09-01T20:38:25.856Z,99.90
2018-09-01T20:40:54.369Z,99.90
2018-09-01T20:43:23.211Z,99.90
2018-09-01T20:45:51.978Z,99.90
2018-09-01T20:48:20.563Z,99.90
2018-09-01T20:50:49.157Z,99.90
2018-09-01T20:53:17.682Z,99.90
2018-09-01T20:55:46.818Z,99.90
2018-09-01T20:58:15.838Z,99.90
2018-09-01T21:00:44.444Z,99.90
2018-09-01T21:03:12.988Z,99.90
2018-09-01T21:05:41.555Z,99.90
2018-09-01T21:08:10.261Z,99.90
2018-09-01T21:10:38.816Z,99.90
2018-09-01T21:13:07.338Z,99.90
2018-09-01T21:15:35.870Z,99.90
2018-09-01T21:18:04.472Z,99.90
2018-09-01T21:20:33.005Z,99.90
2018-09-01T21:23:01.563Z,99.90
2018-09-01T21:25:30.063Z,99.90
2018-09-01T21:27:58.584Z,99.90
2018-09-01T21:30:27.115Z,99.90
2018-09-01T21:32:55.695Z,99.90
2018-09-01T21:35:24.198Z,99.90
2018-09-01T21:37:52.705Z,99.90
2018-09-01T21:40:21.240Z,99.90
2018-09-01T21:42:49.735Z,99.90
2018-09-01T21:45:18.196Z,99.90
2018-09-01T21:47:46.748Z,99.90
2018-09-01T21:50:15.247Z,99.90
2018-09-01T21:52:43.806Z,99.90
2018-09-01T21:55:12.317Z,99.90
2018-09-01T21:57:40.848Z,99.90
2018-09-01T22:00:10.292Z,99.90
2018-09-01T22:02:38.890Z,99.90
2018-09-01T22:05:22.271Z,99.90
2018-09-01T22:07:50.793Z,99.90
2018-09-01T22:10:19.367Z,99.90
2018-09-01T22:12:47.923Z,99.90
2018-09-01T22:15:16.453Z,99.90
2018-09-01T22:17:45.022Z,99.90
2018-09-01T22:20:13.567Z,99.90
2018-09-01T22:22:42.114Z,99.90
2018-09-01T22:25:11.573Z,99.90
2018-09-01T22:27:40.199Z,99.90
2018-09-01T22:30:08.787Z,99.90
2018-09-01T22:32:37.860Z,99.90
2018-09-01T22:35:06.440Z,99.90
2018-09-01T22:37:35.025Z,99.90
2018-09-01T22:40:04.478Z,99.90
2018-09-01T22:42:33.018Z,99.90
2018-09-01T22:45:01.586Z,99.90
2018-09-01T22:47:31.702Z,99.90
2018-09-01T22:50:00.273Z,99.90
2018-09-01T22:52:28.861Z,99.90
2018-09-01T22:54:57.392Z,99.90
2018-09-01T22:57:25.991Z,99.90
2018-09-01T22:59:54.872Z,99.90
2018-09-01T23:02:23.428Z,99.90
2018-09-01T23:04:52.012Z,99.90
2018-09-01T23:07:20.522Z,99.90
2018-09-01T23:09:49.313Z,99.90
2018-09-01T23:12:17.843Z,99.90
2018-09-01T23:14:46.403Z,99.90
2018-09-01T23:17:15.071Z,99.90
2018-09-01T23:19:43.696Z,99.90
2018-09-01T23:22:12.349Z,99.90
2018-09-01T23:24:40.948Z,99.90
2018-09-01T23:27:09.556Z,99.90
2018-09-01T23:29:38.164Z,99.90
2018-09-01T23:32:06.828Z,99.90
2018-09-01T23:34:35.358Z,99.90
2018-09-01T23:37:03.929Z,99.90
2018-09-01T23:39:32.441Z,99.90
2018-09-01T23:42:00.960Z,99.90
2018-09-01T23:44:29.523Z,99.90
2018-09-01T23:46:58.034Z,99.90
2018-09-01T23:49:26.634Z,99.90
2018-09-01T23:51:55.271Z,99.90
2018-09-01T23:54:23.873Z,99.90
2018-09-01T23:56:52.427Z,99.90
2018-09-01T23:59:20.970Z,99.90
